sensor_id;sensor_type;location;lat;lon;timestamp;P1;durP1;ratioP1;P2;durP2;ratioP2
41631;SDS011;37452;51.938;4.624;2023-04-16T00:01:07;11.20;;;2.30;;
41631;SDS011;37452;51.938;4.624;2023-04-16T00:03:32;15.07;;;2.93;;
41631;SDS011;37452;51.938;4.624;2023-04-16T00:05:57;9.90;;;2.97;;
41631;SDS011;37452;51.938;4.624;2023-04-16T00:08:23;13.93;;;2.90;;
41631;SDS011;37452;51.938;4.624;2023-04-16T00:10:48;7.73;;;2.10;;
41631;SDS011;37452;51.938;4.624;2023-04-16T00:13:15;8.43;;;2.10;;
41631;SDS011;37452;51.938;4.624;2023-04-16T00:15:40;7.20;;;2.10;;
41631;SDS011;37452;51.938;4.624;2023-04-16T00:18:05;12.53;;;2.53;;
41631;SDS011;37452;51.938;4.624;2023-04-16T00:20:31;13.93;;;2.70;;
41631;SDS011;37452;51.938;4.624;2023-04-16T00:22:56;8.03;;;2.50;;
41631;SDS011;37452;51.938;4.624;2023-04-16T00:25:22;12.03;;;2.10;;
41631;SDS011;37452;51.938;4.624;2023-04-16T00:27:47;10.97;;;2.63;;
41631;SDS011;37452;51.938;4.624;2023-04-16T00:30:12;8.77;;;2.37;;
41631;SDS011;37452;51.938;4.624;2023-04-16T00:32:38;6.80;;;1.83;;
41631;SDS011;37452;51.938;4.624;2023-04-16T00:35:03;10.83;;;2.43;;
41631;SDS011;37452;51.938;4.624;2023-04-16T00:37:29;10.37;;;2.80;;
41631;SDS011;37452;51.938;4.624;2023-04-16T00:39:54;7.73;;;2.10;;
41631;SDS011;37452;51.938;4.624;2023-04-16T00:42:20;9.80;;;2.90;;
41631;SDS011;37452;51.938;4.624;2023-04-16T00:44:45;5.07;;;2.37;;
41631;SDS011;37452;51.938;4.624;2023-04-16T00:47:10;9.63;;;2.23;;
41631;SDS011;37452;51.938;4.624;2023-04-16T00:49:36;9.87;;;2.00;;
41631;SDS011;37452;51.938;4.624;2023-04-16T00:52:01;7.70;;;1.57;;
41631;SDS011;37452;51.938;4.624;2023-04-16T00:54:27;7.83;;;2.10;;
41631;SDS011;37452;51.938;4.624;2023-04-16T00:56:52;7.80;;;2.30;;
41631;SDS011;37452;51.938;4.624;2023-04-16T00:59:18;8.10;;;2.13;;
41631;SDS011;37452;51.938;4.624;2023-04-16T01:01:43;11.80;;;2.43;;
41631;SDS011;37452;51.938;4.624;2023-04-16T01:04:09;9.70;;;1.97;;
41631;SDS011;37452;51.938;4.624;2023-04-16T01:06:34;7.00;;;1.80;;
41631;SDS011;37452;51.938;4.624;2023-04-16T01:09:00;12.20;;;2.00;;
41631;SDS011;37452;51.938;4.624;2023-04-16T01:11:25;7.23;;;2.13;;
41631;SDS011;37452;51.938;4.624;2023-04-16T01:13:51;14.00;;;2.03;;
41631;SDS011;37452;51.938;4.624;2023-04-16T01:16:16;11.70;;;2.20;;
41631;SDS011;37452;51.938;4.624;2023-04-16T01:18:42;17.23;;;3.00;;
41631;SDS011;37452;51.938;4.624;2023-04-16T01:21:07;8.30;;;1.90;;
41631;SDS011;37452;51.938;4.624;2023-04-16T01:23:32;7.53;;;2.17;;
41631;SDS011;37452;51.938;4.624;2023-04-16T01:25:58;9.33;;;1.93;;
41631;SDS011;37452;51.938;4.624;2023-04-16T01:28:23;11.47;;;2.30;;
41631;SDS011;37452;51.938;4.624;2023-04-16T01:30:49;17.83;;;2.70;;
41631;SDS011;37452;51.938;4.624;2023-04-16T01:33:14;9.77;;;2.10;;
41631;SDS011;37452;51.938;4.624;2023-04-16T01:35:40;13.97;;;2.63;;
41631;SDS011;37452;51.938;4.624;2023-04-16T01:38:05;8.10;;;2.07;;
41631;SDS011;37452;51.938;4.624;2023-04-16T01:40:33;9.30;;;2.47;;
41631;SDS011;37452;51.938;4.624;2023-04-16T01:42:58;17.13;;;2.77;;
41631;SDS011;37452;51.938;4.624;2023-04-16T01:45:24;10.40;;;2.17;;
41631;SDS011;37452;51.938;4.624;2023-04-16T01:47:49;8.33;;;3.07;;
41631;SDS011;37452;51.938;4.624;2023-04-16T01:50:16;15.73;;;3.03;;
41631;SDS011;37452;51.938;4.624;2023-04-16T01:52:42;4.93;;;2.37;;
41631;SDS011;37452;51.938;4.624;2023-04-16T01:55:08;7.03;;;2.50;;
41631;SDS011;37452;51.938;4.624;2023-04-16T01:57:33;19.13;;;2.83;;
41631;SDS011;37452;51.938;4.624;2023-04-16T01:59:59;11.07;;;2.17;;
41631;SDS011;37452;51.938;4.624;2023-04-16T02:02:24;10.43;;;3.23;;
41631;SDS011;37452;51.938;4.624;2023-04-16T02:04:52;11.73;;;2.57;;
41631;SDS011;37452;51.938;4.624;2023-04-16T02:07:17;8.63;;;2.53;;
41631;SDS011;37452;51.938;4.624;2023-04-16T02:09:43;12.17;;;2.80;;
41631;SDS011;37452;51.938;4.624;2023-04-16T02:12:08;14.00;;;3.47;;
41631;SDS011;37452;51.938;4.624;2023-04-16T02:14:35;12.13;;;3.40;;
41631;SDS011;37452;51.938;4.624;2023-04-16T02:17:01;9.73;;;2.70;;
41631;SDS011;37452;51.938;4.624;2023-04-16T02:19:26;10.37;;;2.83;;
41631;SDS011;37452;51.938;4.624;2023-04-16T02:21:51;9.20;;;3.03;;
41631;SDS011;37452;51.938;4.624;2023-04-16T02:24:17;10.63;;;3.17;;
41631;SDS011;37452;51.938;4.624;2023-04-16T02:26:43;9.63;;;3.13;;
41631;SDS011;37452;51.938;4.624;2023-04-16T02:29:09;13.77;;;3.47;;
41631;SDS011;37452;51.938;4.624;2023-04-16T02:31:34;8.17;;;3.03;;
41631;SDS011;37452;51.938;4.624;2023-04-16T02:34:00;8.20;;;3.33;;
41631;SDS011;37452;51.938;4.624;2023-04-16T02:36:25;7.90;;;3.17;;
41631;SDS011;37452;51.938;4.624;2023-04-16T02:38:51;17.77;;;2.97;;
41631;SDS011;37452;51.938;4.624;2023-04-16T02:41:16;8.03;;;3.07;;
41631;SDS011;37452;51.938;4.624;2023-04-16T02:43:42;9.63;;;3.23;;
41631;SDS011;37452;51.938;4.624;2023-04-16T02:46:07;8.83;;;3.00;;
41631;SDS011;37452;51.938;4.624;2023-04-16T02:48:32;15.77;;;4.00;;
41631;SDS011;37452;51.938;4.624;2023-04-16T02:50:58;10.73;;;3.17;;
41631;SDS011;37452;51.938;4.624;2023-04-16T02:53:23;11.80;;;3.37;;
41631;SDS011;37452;51.938;4.624;2023-04-16T02:55:49;11.60;;;3.10;;
41631;SDS011;37452;51.938;4.624;2023-04-16T02:58:18;9.47;;;2.70;;
41631;SDS011;37452;51.938;4.624;2023-04-16T03:00:45;10.97;;;3.17;;
41631;SDS011;37452;51.938;4.624;2023-04-16T03:03:10;10.53;;;3.10;;
41631;SDS011;37452;51.938;4.624;2023-04-16T03:05:36;12.03;;;2.93;;
41631;SDS011;37452;51.938;4.624;2023-04-16T03:08:02;7.40;;;2.33;;
41631;SDS011;37452;51.938;4.624;2023-04-16T03:10:28;9.23;;;2.93;;
41631;SDS011;37452;51.938;4.624;2023-04-16T03:12:53;16.23;;;3.13;;
41631;SDS011;37452;51.938;4.624;2023-04-16T03:15:18;15.83;;;3.07;;
41631;SDS011;37452;51.938;4.624;2023-04-16T03:17:44;15.47;;;2.97;;
41631;SDS011;37452;51.938;4.624;2023-04-16T03:20:09;8.90;;;3.20;;
41631;SDS011;37452;51.938;4.624;2023-04-16T03:22:35;11.03;;;3.10;;
41631;SDS011;37452;51.938;4.624;2023-04-16T03:25:00;9.93;;;3.03;;
41631;SDS011;37452;51.938;4.624;2023-04-16T03:27:25;15.97;;;3.80;;
41631;SDS011;37452;51.938;4.624;2023-04-16T03:29:51;10.97;;;3.53;;
41631;SDS011;37452;51.938;4.624;2023-04-16T03:32:16;12.70;;;3.30;;
41631;SDS011;37452;51.938;4.624;2023-04-16T03:34:41;14.93;;;3.20;;
41631;SDS011;37452;51.938;4.624;2023-04-16T03:37:07;16.10;;;3.40;;
41631;SDS011;37452;51.938;4.624;2023-04-16T03:39:35;13.73;;;2.93;;
41631;SDS011;37452;51.938;4.624;2023-04-16T03:42:01;14.47;;;3.17;;
41631;SDS011;37452;51.938;4.624;2023-04-16T03:44:27;9.03;;;3.37;;
41631;SDS011;37452;51.938;4.624;2023-04-16T03:46:52;13.47;;;3.60;;
41631;SDS011;37452;51.938;4.624;2023-04-16T03:49:18;13.47;;;3.33;;
41631;SDS011;37452;51.938;4.624;2023-04-16T03:51:43;13.37;;;3.77;;
41631;SDS011;37452;51.938;4.624;2023-04-16T03:54:08;13.30;;;3.63;;
41631;SDS011;37452;51.938;4.624;2023-04-16T03:56:33;11.90;;;3.20;;
41631;SDS011;37452;51.938;4.624;2023-04-16T03:58:59;14.90;;;3.83;;
41631;SDS011;37452;51.938;4.624;2023-04-16T04:01:24;11.67;;;3.57;;
41631;SDS011;37452;51.938;4.624;2023-04-16T04:03:49;16.57;;;3.57;;
41631;SDS011;37452;51.938;4.624;2023-04-16T04:06:15;14.97;;;3.67;;
41631;SDS011;37452;51.938;4.624;2023-04-16T04:08:40;10.50;;;2.93;;
41631;SDS011;37452;51.938;4.624;2023-04-16T04:11:05;19.40;;;3.50;;
41631;SDS011;37452;51.938;4.624;2023-04-16T04:13:31;22.43;;;4.10;;
41631;SDS011;37452;51.938;4.624;2023-04-16T04:15:56;8.20;;;2.90;;
41631;SDS011;37452;51.938;4.624;2023-04-16T04:18:21;14.63;;;2.63;;
41631;SDS011;37452;51.938;4.624;2023-04-16T04:20:47;11.60;;;2.93;;
41631;SDS011;37452;51.938;4.624;2023-04-16T04:23:12;10.87;;;3.10;;
41631;SDS011;37452;51.938;4.624;2023-04-16T04:25:37;11.63;;;3.23;;
41631;SDS011;37452;51.938;4.624;2023-04-16T04:28:02;5.50;;;2.33;;
41631;SDS011;37452;51.938;4.624;2023-04-16T04:30:28;8.73;;;3.30;;
41631;SDS011;37452;51.938;4.624;2023-04-16T04:32:53;11.13;;;2.60;;
41631;SDS011;37452;51.938;4.624;2023-04-16T04:35:19;13.47;;;2.80;;
41631;SDS011;37452;51.938;4.624;2023-04-16T04:37:45;10.87;;;2.80;;
41631;SDS011;37452;51.938;4.624;2023-04-16T04:40:10;8.27;;;2.70;;
41631;SDS011;37452;51.938;4.624;2023-04-16T04:42:36;7.50;;;2.00;;
41631;SDS011;37452;51.938;4.624;2023-04-16T04:45:02;7.93;;;1.97;;
41631;SDS011;37452;51.938;4.624;2023-04-16T04:47:27;8.70;;;2.10;;
41631;SDS011;37452;51.938;4.624;2023-04-16T04:49:52;6.10;;;2.30;;
41631;SDS011;37452;51.938;4.624;2023-04-16T04:52:18;8.47;;;2.87;;
41631;SDS011;37452;51.938;4.624;2023-04-16T04:54:44;6.70;;;2.33;;
41631;SDS011;37452;51.938;4.624;2023-04-16T04:57:09;7.30;;;2.13;;
41631;SDS011;37452;51.938;4.624;2023-04-16T04:59:35;11.27;;;2.60;;
41631;SDS011;37452;51.938;4.624;2023-04-16T05:02:00;8.17;;;1.93;;
41631;SDS011;37452;51.938;4.624;2023-04-16T05:04:27;7.17;;;1.90;;
41631;SDS011;37452;51.938;4.624;2023-04-16T05:06:53;7.90;;;2.10;;
41631;SDS011;37452;51.938;4.624;2023-04-16T05:09:18;10.10;;;2.03;;
41631;SDS011;37452;51.938;4.624;2023-04-16T05:11:44;9.33;;;2.30;;
41631;SDS011;37452;51.938;4.624;2023-04-16T05:14:09;8.07;;;2.20;;
41631;SDS011;37452;51.938;4.624;2023-04-16T05:16:35;7.57;;;2.00;;
41631;SDS011;37452;51.938;4.624;2023-04-16T05:19:01;7.13;;;2.10;;
41631;SDS011;37452;51.938;4.624;2023-04-16T05:21:26;6.90;;;2.70;;
41631;SDS011;37452;51.938;4.624;2023-04-16T05:23:51;6.87;;;1.90;;
41631;SDS011;37452;51.938;4.624;2023-04-16T05:26:17;6.90;;;2.23;;
41631;SDS011;37452;51.938;4.624;2023-04-16T05:28:42;10.50;;;2.70;;
41631;SDS011;37452;51.938;4.624;2023-04-16T05:31:08;5.33;;;2.30;;
41631;SDS011;37452;51.938;4.624;2023-04-16T05:33:33;16.50;;;3.00;;
41631;SDS011;37452;51.938;4.624;2023-04-16T05:35:58;6.33;;;2.60;;
41631;SDS011;37452;51.938;4.624;2023-04-16T05:38:24;6.87;;;2.40;;
41631;SDS011;37452;51.938;4.624;2023-04-16T05:40:49;9.07;;;3.00;;
41631;SDS011;37452;51.938;4.624;2023-04-16T05:43:14;10.53;;;3.17;;
41631;SDS011;37452;51.938;4.624;2023-04-16T05:45:40;11.70;;;2.93;;
41631;SDS011;37452;51.938;4.624;2023-04-16T05:48:06;5.90;;;2.63;;
41631;SDS011;37452;51.938;4.624;2023-04-16T05:50:32;10.50;;;2.53;;
41631;SDS011;37452;51.938;4.624;2023-04-16T05:52:58;9.97;;;2.87;;
41631;SDS011;37452;51.938;4.624;2023-04-16T05:55:23;8.00;;;3.23;;
41631;SDS011;37452;51.938;4.624;2023-04-16T05:57:49;8.33;;;2.77;;
41631;SDS011;37452;51.938;4.624;2023-04-16T06:00:14;10.20;;;3.03;;
41631;SDS011;37452;51.938;4.624;2023-04-16T06:02:40;10.77;;;3.57;;
41631;SDS011;37452;51.938;4.624;2023-04-16T06:05:07;8.83;;;2.97;;
41631;SDS011;37452;51.938;4.624;2023-04-16T06:07:33;9.90;;;2.70;;
41631;SDS011;37452;51.938;4.624;2023-04-16T06:09:58;8.87;;;2.77;;
41631;SDS011;37452;51.938;4.624;2023-04-16T06:12:23;6.97;;;2.83;;
41631;SDS011;37452;51.938;4.624;2023-04-16T06:14:49;7.70;;;2.90;;
41631;SDS011;37452;51.938;4.624;2023-04-16T06:17:14;12.67;;;3.73;;
41631;SDS011;37452;51.938;4.624;2023-04-16T06:19:40;5.60;;;2.60;;
41631;SDS011;37452;51.938;4.624;2023-04-16T06:22:06;10.20;;;2.90;;
41631;SDS011;37452;51.938;4.624;2023-04-16T06:24:31;5.67;;;2.83;;
41631;SDS011;37452;51.938;4.624;2023-04-16T06:26:57;9.63;;;2.93;;
41631;SDS011;37452;51.938;4.624;2023-04-16T06:29:22;11.03;;;3.10;;
41631;SDS011;37452;51.938;4.624;2023-04-16T06:31:47;9.50;;;3.07;;
41631;SDS011;37452;51.938;4.624;2023-04-16T06:34:13;10.93;;;3.37;;
41631;SDS011;37452;51.938;4.624;2023-04-16T06:36:38;10.87;;;3.07;;
41631;SDS011;37452;51.938;4.624;2023-04-16T06:39:03;8.53;;;2.50;;
41631;SDS011;37452;51.938;4.624;2023-04-16T06:41:29;6.70;;;3.07;;
41631;SDS011;37452;51.938;4.624;2023-04-16T06:43:54;7.00;;;3.07;;
41631;SDS011;37452;51.938;4.624;2023-04-16T06:46:20;7.80;;;2.87;;
41631;SDS011;37452;51.938;4.624;2023-04-16T06:48:45;9.30;;;2.77;;
41631;SDS011;37452;51.938;4.624;2023-04-16T06:51:10;9.27;;;2.97;;
41631;SDS011;37452;51.938;4.624;2023-04-16T06:53:37;6.40;;;3.03;;
41631;SDS011;37452;51.938;4.624;2023-04-16T06:56:02;6.85;;;2.78;;
41631;SDS011;37452;51.938;4.624;2023-04-16T06:58:28;7.63;;;2.70;;
41631;SDS011;37452;51.938;4.624;2023-04-16T07:00:53;7.10;;;3.20;;
41631;SDS011;37452;51.938;4.624;2023-04-16T07:03:18;13.30;;;3.37;;
41631;SDS011;37452;51.938;4.624;2023-04-16T07:05:44;9.13;;;3.50;;
41631;SDS011;37452;51.938;4.624;2023-04-16T07:08:09;10.13;;;3.43;;
41631;SDS011;37452;51.938;4.624;2023-04-16T07:10:34;9.95;;;4.15;;
41631;SDS011;37452;51.938;4.624;2023-04-16T07:13:00;10.43;;;4.00;;
41631;SDS011;37452;51.938;4.624;2023-04-16T07:15:25;12.60;;;3.73;;
41631;SDS011;37452;51.938;4.624;2023-04-16T07:17:51;14.33;;;4.77;;
41631;SDS011;37452;51.938;4.624;2023-04-16T07:20:16;10.23;;;4.30;;
41631;SDS011;37452;51.938;4.624;2023-04-16T07:22:42;10.53;;;4.00;;
41631;SDS011;37452;51.938;4.624;2023-04-16T07:25:07;17.03;;;4.50;;
41631;SDS011;37452;51.938;4.624;2023-04-16T07:27:33;16.20;;;4.87;;
41631;SDS011;37452;51.938;4.624;2023-04-16T07:29:58;9.50;;;3.60;;
41631;SDS011;37452;51.938;4.624;2023-04-16T07:32:24;11.70;;;4.10;;
41631;SDS011;37452;51.938;4.624;2023-04-16T07:34:49;8.60;;;3.67;;
41631;SDS011;37452;51.938;4.624;2023-04-16T07:37:14;10.80;;;4.20;;
41631;SDS011;37452;51.938;4.624;2023-04-16T07:39:40;10.40;;;4.00;;
41631;SDS011;37452;51.938;4.624;2023-04-16T07:42:05;10.23;;;4.30;;
41631;SDS011;37452;51.938;4.624;2023-04-16T07:44:31;9.95;;;3.60;;
41631;SDS011;37452;51.938;4.624;2023-04-16T07:46:56;11.20;;;4.60;;
41631;SDS011;37452;51.938;4.624;2023-04-16T07:49:22;10.00;;;3.58;;
41631;SDS011;37452;51.938;4.624;2023-04-16T07:51:47;9.18;;;3.75;;
41631;SDS011;37452;51.938;4.624;2023-04-16T07:54:12;11.93;;;3.80;;
41631;SDS011;37452;51.938;4.624;2023-04-16T07:56:38;9.98;;;3.67;;
41631;SDS011;37452;51.938;4.624;2023-04-16T07:59:03;12.37;;;4.13;;
41631;SDS011;37452;51.938;4.624;2023-04-16T08:01:28;10.77;;;6.07;;
41631;SDS011;37452;51.938;4.624;2023-04-16T08:03:54;12.10;;;5.70;;
41631;SDS011;37452;51.938;4.624;2023-04-16T08:06:20;10.93;;;4.38;;
41631;SDS011;37452;51.938;4.624;2023-04-16T08:08:45;7.63;;;4.00;;
41631;SDS011;37452;51.938;4.624;2023-04-16T08:11:10;12.73;;;4.28;;
41631;SDS011;37452;51.938;4.624;2023-04-16T08:13:36;7.25;;;3.25;;
41631;SDS011;37452;51.938;4.624;2023-04-16T08:16:01;8.40;;;4.15;;
41631;SDS011;37452;51.938;4.624;2023-04-16T08:18:26;15.32;;;5.28;;
41631;SDS011;37452;51.938;4.624;2023-04-16T08:20:52;13.60;;;5.60;;
41631;SDS011;37452;51.938;4.624;2023-04-16T08:23:17;9.63;;;5.50;;
41631;SDS011;37452;51.938;4.624;2023-04-16T08:25:42;10.20;;;5.40;;
41631;SDS011;37452;51.938;4.624;2023-04-16T08:28:08;11.53;;;4.77;;
41631;SDS011;37452;51.938;4.624;2023-04-16T08:30:33;13.80;;;6.73;;
41631;SDS011;37452;51.938;4.624;2023-04-16T08:32:59;15.70;;;6.43;;
41631;SDS011;37452;51.938;4.624;2023-04-16T08:35:24;14.53;;;7.83;;
41631;SDS011;37452;51.938;4.624;2023-04-16T08:37:49;15.05;;;6.82;;
41631;SDS011;37452;51.938;4.624;2023-04-16T08:40:15;14.60;;;6.65;;
41631;SDS011;37452;51.938;4.624;2023-04-16T08:42:45;11.95;;;6.25;;
41631;SDS011;37452;51.938;4.624;2023-04-16T08:45:16;16.30;;;6.57;;
41631;SDS011;37452;51.938;4.624;2023-04-16T08:47:44;12.18;;;6.50;;
41631;SDS011;37452;51.938;4.624;2023-04-16T08:50:10;10.63;;;5.63;;
41631;SDS011;37452;51.938;4.624;2023-04-16T08:52:42;14.15;;;5.60;;
41631;SDS011;37452;51.938;4.624;2023-04-16T08:55:15;17.15;;;10.98;;
41631;SDS011;37452;51.938;4.624;2023-04-16T08:57:58;13.93;;;6.18;;
41631;SDS011;37452;51.938;4.624;2023-04-16T09:00:25;12.50;;;6.65;;
41631;SDS011;37452;51.938;4.624;2023-04-16T09:02:50;14.40;;;7.68;;
41631;SDS011;37452;51.938;4.624;2023-04-16T09:05:17;16.50;;;8.83;;
41631;SDS011;37452;51.938;4.624;2023-04-16T09:07:49;14.10;;;7.70;;
41631;SDS011;37452;51.938;4.624;2023-04-16T09:10:16;14.75;;;7.25;;
41631;SDS011;37452;51.938;4.624;2023-04-16T09:12:42;12.57;;;6.72;;
41631;SDS011;37452;51.938;4.624;2023-04-16T09:15:08;13.30;;;6.60;;
41631;SDS011;37452;51.938;4.624;2023-04-16T09:17:35;8.82;;;5.93;;
41631;SDS011;37452;51.938;4.624;2023-04-16T09:20:01;15.43;;;7.55;;
41631;SDS011;37452;51.938;4.624;2023-04-16T09:22:29;15.10;;;8.10;;
41631;SDS011;37452;51.938;4.624;2023-04-16T09:24:55;17.60;;;7.13;;
41631;SDS011;37452;51.938;4.624;2023-04-16T09:27:20;14.25;;;7.40;;
41631;SDS011;37452;51.938;4.624;2023-04-16T09:29:46;14.63;;;6.63;;
41631;SDS011;37452;51.938;4.624;2023-04-16T09:32:11;14.27;;;6.80;;
41631;SDS011;37452;51.938;4.624;2023-04-16T09:37:25;12.68;;;7.20;;
41631;SDS011;37452;51.938;4.624;2023-04-16T09:39:54;20.30;;;7.80;;
41631;SDS011;37452;51.938;4.624;2023-04-16T09:42:23;16.63;;;8.70;;
41631;SDS011;37452;51.938;4.624;2023-04-16T09:44:53;21.65;;;8.57;;
41631;SDS011;37452;51.938;4.624;2023-04-16T09:47:19;17.90;;;7.80;;
41631;SDS011;37452;51.938;4.624;2023-04-16T09:49:45;15.48;;;7.25;;
41631;SDS011;37452;51.938;4.624;2023-04-16T09:52:14;12.43;;;6.75;;
41631;SDS011;37452;51.938;4.624;2023-04-16T09:54:48;15.40;;;6.78;;
41631;SDS011;37452;51.938;4.624;2023-04-16T09:57:18;11.55;;;6.07;;
41631;SDS011;37452;51.938;4.624;2023-04-16T09:59:45;13.05;;;6.72;;
41631;SDS011;37452;51.938;4.624;2023-04-16T10:02:11;17.63;;;6.47;;
41631;SDS011;37452;51.938;4.624;2023-04-16T10:04:57;14.18;;;6.43;;
41631;SDS011;37452;51.938;4.624;2023-04-16T10:07:22;13.02;;;5.97;;
41631;SDS011;37452;51.938;4.624;2023-04-16T10:09:52;16.20;;;6.65;;
41631;SDS011;37452;51.938;4.624;2023-04-16T10:12:18;12.57;;;5.55;;
41631;SDS011;37452;51.938;4.624;2023-04-16T10:14:44;14.48;;;6.32;;
41631;SDS011;37452;51.938;4.624;2023-04-16T10:17:09;14.43;;;5.82;;
41631;SDS011;37452;51.938;4.624;2023-04-16T10:19:34;12.95;;;5.82;;
41631;SDS011;37452;51.938;4.624;2023-04-16T10:22:01;12.45;;;5.60;;
41631;SDS011;37452;51.938;4.624;2023-04-16T10:24:30;13.45;;;5.47;;
41631;SDS011;37452;51.938;4.624;2023-04-16T10:26:56;21.17;;;6.40;;
41631;SDS011;37452;51.938;4.624;2023-04-16T10:29:22;16.00;;;6.20;;
41631;SDS011;37452;51.938;4.624;2023-04-16T10:31:50;17.58;;;7.30;;
41631;SDS011;37452;51.938;4.624;2023-04-16T10:34:18;16.65;;;7.88;;
41631;SDS011;37452;51.938;4.624;2023-04-16T10:36:48;18.58;;;6.47;;
41631;SDS011;37452;51.938;4.624;2023-04-16T10:39:17;15.40;;;7.13;;
41631;SDS011;37452;51.938;4.624;2023-04-16T10:41:47;22.38;;;8.55;;
41631;SDS011;37452;51.938;4.624;2023-04-16T10:44:15;22.50;;;7.68;;
41631;SDS011;37452;51.938;4.624;2023-04-16T10:46:42;21.63;;;7.03;;
41631;SDS011;37452;51.938;4.624;2023-04-16T10:49:19;24.67;;;6.82;;
41631;SDS011;37452;51.938;4.624;2023-04-16T10:51:54;11.55;;;6.18;;
41631;SDS011;37452;51.938;4.624;2023-04-16T10:54:25;16.35;;;7.32;;
41631;SDS011;37452;51.938;4.624;2023-04-16T10:56:52;17.00;;;8.00;;
41631;SDS011;37452;51.938;4.624;2023-04-16T10:59:20;18.70;;;8.20;;
41631;SDS011;37452;51.938;4.624;2023-04-16T11:01:57;18.83;;;8.00;;
41631;SDS011;37452;51.938;4.624;2023-04-16T11:12:42;14.57;;;7.75;;
41631;SDS011;37452;51.938;4.624;2023-04-16T11:15:11;18.50;;;6.65;;
41631;SDS011;37452;51.938;4.624;2023-04-16T11:20:04;13.55;;;7.40;;
41631;SDS011;37452;51.938;4.624;2023-04-16T11:22:33;15.02;;;6.90;;
41631;SDS011;37452;51.938;4.624;2023-04-16T11:25:00;17.40;;;6.38;;
41631;SDS011;37452;51.938;4.624;2023-04-16T11:27:26;10.15;;;5.15;;
41631;SDS011;37452;51.938;4.624;2023-04-16T11:32:31;14.85;;;5.30;;
41631;SDS011;37452;51.938;4.624;2023-04-16T11:34:58;13.68;;;5.68;;
41631;SDS011;37452;51.938;4.624;2023-04-16T11:37:31;15.23;;;5.97;;
41631;SDS011;37452;51.938;4.624;2023-04-16T11:40:00;16.33;;;6.35;;
41631;SDS011;37452;51.938;4.624;2023-04-16T11:42:30;11.90;;;6.03;;
41631;SDS011;37452;51.938;4.624;2023-04-16T11:44:56;10.13;;;5.53;;
41631;SDS011;37452;51.938;4.624;2023-04-16T11:47:24;13.15;;;6.00;;
41631;SDS011;37452;51.938;4.624;2023-04-16T11:49:51;13.32;;;6.05;;
41631;SDS011;37452;51.938;4.624;2023-04-16T11:54:55;15.45;;;6.57;;
41631;SDS011;37452;51.938;4.624;2023-04-16T11:57:25;13.60;;;6.38;;
41631;SDS011;37452;51.938;4.624;2023-04-16T11:59:51;16.90;;;6.57;;
41631;SDS011;37452;51.938;4.624;2023-04-16T12:02:17;15.80;;;6.32;;
41631;SDS011;37452;51.938;4.624;2023-04-16T12:04:57;16.45;;;7.47;;
41631;SDS011;37452;51.938;4.624;2023-04-16T12:07:22;17.92;;;8.23;;
41631;SDS011;37452;51.938;4.624;2023-04-16T12:09:48;17.95;;;7.88;;
41631;SDS011;37452;51.938;4.624;2023-04-16T12:12:26;21.80;;;6.80;;
41631;SDS011;37452;51.938;4.624;2023-04-16T12:14:54;15.07;;;7.10;;
41631;SDS011;37452;51.938;4.624;2023-04-16T12:17:21;15.50;;;6.30;;
41631;SDS011;37452;51.938;4.624;2023-04-16T12:19:48;17.77;;;6.88;;
41631;SDS011;37452;51.938;4.624;2023-04-16T12:22:15;17.05;;;5.88;;
41631;SDS011;37452;51.938;4.624;2023-04-16T12:24:41;23.35;;;6.47;;
41631;SDS011;37452;51.938;4.624;2023-04-16T12:27:06;22.40;;;5.88;;
41631;SDS011;37452;51.938;4.624;2023-04-16T12:29:32;18.70;;;6.00;;
41631;SDS011;37452;51.938;4.624;2023-04-16T12:31:58;16.98;;;6.90;;
41631;SDS011;37452;51.938;4.624;2023-04-16T12:34:23;14.20;;;6.45;;
41631;SDS011;37452;51.938;4.624;2023-04-16T12:37:02;13.20;;;6.65;;
41631;SDS011;37452;51.938;4.624;2023-04-16T12:39:31;18.98;;;6.55;;
41631;SDS011;37452;51.938;4.624;2023-04-16T12:41:56;12.27;;;7.05;;
41631;SDS011;37452;51.938;4.624;2023-04-16T12:44:22;17.83;;;6.93;;
41631;SDS011;37452;51.938;4.624;2023-04-16T12:46:47;15.30;;;6.80;;
41631;SDS011;37452;51.938;4.624;2023-04-16T12:49:12;14.60;;;7.63;;
41631;SDS011;37452;51.938;4.624;2023-04-16T12:51:38;16.55;;;7.25;;
41631;SDS011;37452;51.938;4.624;2023-04-16T12:54:04;14.65;;;7.03;;
41631;SDS011;37452;51.938;4.624;2023-04-16T12:56:32;18.45;;;7.38;;
41631;SDS011;37452;51.938;4.624;2023-04-16T12:58:58;18.63;;;6.72;;
41631;SDS011;37452;51.938;4.624;2023-04-16T13:01:23;20.15;;;7.38;;
41631;SDS011;37452;51.938;4.624;2023-04-16T13:03:49;14.82;;;7.55;;
41631;SDS011;37452;51.938;4.624;2023-04-16T13:06:14;22.08;;;7.88;;
41631;SDS011;37452;51.938;4.624;2023-04-16T13:08:41;14.65;;;7.72;;
41631;SDS011;37452;51.938;4.624;2023-04-16T13:11:08;19.13;;;8.68;;
41631;SDS011;37452;51.938;4.624;2023-04-16T13:13:34;22.05;;;7.65;;
41631;SDS011;37452;51.938;4.624;2023-04-16T13:15:59;20.33;;;7.28;;
41631;SDS011;37452;51.938;4.624;2023-04-16T13:18:25;17.52;;;7.63;;
41631;SDS011;37452;51.938;4.624;2023-04-16T13:20:53;18.73;;;7.93;;
41631;SDS011;37452;51.938;4.624;2023-04-16T13:23:18;20.95;;;8.70;;
41631;SDS011;37452;51.938;4.624;2023-04-16T13:25:44;20.55;;;7.57;;
41631;SDS011;37452;51.938;4.624;2023-04-16T13:28:09;17.38;;;7.28;;
41631;SDS011;37452;51.938;4.624;2023-04-16T13:30:35;20.17;;;7.45;;
41631;SDS011;37452;51.938;4.624;2023-04-16T13:33:00;19.13;;;7.43;;
41631;SDS011;37452;51.938;4.624;2023-04-16T13:35:25;18.88;;;7.85;;
41631;SDS011;37452;51.938;4.624;2023-04-16T13:37:51;24.52;;;8.73;;
41631;SDS011;37452;51.938;4.624;2023-04-16T13:40:17;22.80;;;7.78;;
41631;SDS011;37452;51.938;4.624;2023-04-16T13:42:42;19.40;;;7.75;;
41631;SDS011;37452;51.938;4.624;2023-04-16T13:45:08;25.17;;;8.98;;
41631;SDS011;37452;51.938;4.624;2023-04-16T13:47:33;22.15;;;10.60;;
41631;SDS011;37452;51.938;4.624;2023-04-16T13:49:59;27.13;;;9.18;;
41631;SDS011;37452;51.938;4.624;2023-04-16T13:52:24;25.65;;;8.18;;
41631;SDS011;37452;51.938;4.624;2023-04-16T13:54:50;19.65;;;8.65;;
41631;SDS011;37452;51.938;4.624;2023-04-16T13:57:15;18.02;;;8.85;;
41631;SDS011;37452;51.938;4.624;2023-04-16T13:59:42;22.60;;;10.00;;
41631;SDS011;37452;51.938;4.624;2023-04-16T14:02:07;22.38;;;9.93;;
41631;SDS011;37452;51.938;4.624;2023-04-16T14:04:34;19.45;;;9.95;;
41631;SDS011;37452;51.938;4.624;2023-04-16T14:07:00;25.02;;;9.75;;
41631;SDS011;37452;51.938;4.624;2023-04-16T14:09:27;30.55;;;10.68;;
41631;SDS011;37452;51.938;4.624;2023-04-16T14:11:52;20.67;;;10.75;;
41631;SDS011;37452;51.938;4.624;2023-04-16T14:14:18;28.30;;;11.00;;
41631;SDS011;37452;51.938;4.624;2023-04-16T14:16:44;18.48;;;9.50;;
41631;SDS011;37452;51.938;4.624;2023-04-16T14:19:09;17.02;;;9.48;;
41631;SDS011;37452;51.938;4.624;2023-04-16T14:21:35;20.52;;;9.88;;
41631;SDS011;37452;51.938;4.624;2023-04-16T14:24:00;22.77;;;9.40;;
41631;SDS011;37452;51.938;4.624;2023-04-16T14:26:26;16.85;;;7.78;;
41631;SDS011;37452;51.938;4.624;2023-04-16T14:28:52;19.83;;;8.52;;
41631;SDS011;37452;51.938;4.624;2023-04-16T14:31:17;19.00;;;7.75;;
41631;SDS011;37452;51.938;4.624;2023-04-16T14:33:43;17.60;;;6.53;;
41631;SDS011;37452;51.938;4.624;2023-04-16T14:36:09;18.02;;;7.35;;
41631;SDS011;37452;51.938;4.624;2023-04-16T14:38:35;14.15;;;6.55;;
41631;SDS011;37452;51.938;4.624;2023-04-16T14:41:00;16.70;;;6.15;;
41631;SDS011;37452;51.938;4.624;2023-04-16T14:43:26;22.10;;;6.70;;
41631;SDS011;37452;51.938;4.624;2023-04-16T14:45:51;15.52;;;6.07;;
41631;SDS011;37452;51.938;4.624;2023-04-16T14:48:17;13.40;;;5.72;;
41631;SDS011;37452;51.938;4.624;2023-04-16T14:50:42;16.88;;;7.25;;